Time;durP1;ratioP1;P1;durP2;ratioP2;P2;SDS_P1;SDS_P2;PMS_P1;PMS_P2;Temp;Humidity;BMP_temperature;BMP_pressure;BME280_temperature;BME280_humidity;BME280_pressure;Samples;Min_cycle;Max_cycle;Signal;HPM_P1;HPM_P2
2022/04/22 00:00:27;;;;;;;33.25;24.42;;;;;;;11.79;65.11;99769.84;4874334;28;97730;-83
2022/04/22 00:02:54;;;;;;;36.58;24.58;;;;;;;11.73;65.48;99759.63;4873532;28;101418;-84
2022/04/22 00:05:20;;;;;;;33.35;22.67;;;;;;;11.81;65.01;99756.59;4892451;28;98105;-84
2022/04/22 00:07:45;;;;;;;34.72;22.90;;;;;;;11.81;65.49;99753.97;4862237;28;97168;-83
2022/04/22 00:10:11;;;;;;;35.80;23.70;;;;;;;11.82;64.81;99755.69;4861777;28;101567;-84
2022/04/22 00:12:37;;;;;;;36.63;24.60;;;;;;;11.81;64.75;99754.84;4890877;28;99965;-83
2022/04/22 00:15:04;;;;;;;35.03;23.33;;;;;;;11.76;65.30;99754.22;4880387;28;97290;-84
2022/04/22 00:17:29;;;;;;;34.05;23.15;;;;;;;11.65;65.64;99749.44;4880224;28;97083;-83
2022/04/22 00:19:55;;;;;;;34.38;23.27;;;;;;;11.71;65.59;99762.31;4890068;28;101743;-83
2022/04/22 00:22:20;;;;;;;34.45;22.63;;;;;;;11.68;65.29;99756.34;4855038;28;102104;-83
2022/04/22 00:24:46;;;;;;;33.05;22.38;;;;;;;11.62;65.38;99754.84;4862880;28;97176;-83
2022/04/22 00:27:12;;;;;;;30.70;21.50;;;;;;;11.67;64.87;99752.03;4872173;28;97493;-83
2022/04/22 00:29:37;;;;;;;30.35;20.92;;;;;;;11.62;65.60;99756.63;4864298;28;101809;-83
2022/04/22 00:32:03;;;;;;;32.45;21.92;;;;;;;11.67;65.11;99750.25;4879790;28;97569;-83
2022/04/22 00:34:29;;;;;;;30.02;21.25;;;;;;;11.59;64.99;99735.75;4867743;28;97260;-82
2022/04/22 00:36:54;;;;;;;32.35;21.38;;;;;;;11.58;65.42;99745.44;4881983;28;96808;-83
2022/04/22 00:39:20;;;;;;;32.70;22.10;;;;;;;11.59;65.13;99743.66;4878986;28;98537;-83
2022/04/22 00:41:45;;;;;;;30.52;21.80;;;;;;;11.45;65.16;99724.09;4864566;28;102175;-83
2022/04/22 00:44:11;;;;;;;34.53;22.27;;;;;;;11.54;65.23;99742.06;4863760;28;97632;-83
2022/04/22 00:46:36;;;;;;;33.53;22.10;;;;;;;11.61;65.10;99744.44;4865312;28;96820;-84
2022/04/22 00:49:02;;;;;;;33.38;21.95;;;;;;;11.59;65.64;99739.22;4879927;28;101442;-83
2022/04/22 00:51:28;;;;;;;30.77;21.65;;;;;;;11.50;65.43;99722.13;4878839;28;101404;-83
2022/04/22 00:53:54;;;;;;;33.58;22.92;;;;;;;11.71;65.07;99722.88;4879361;28;97352;-83
2022/04/22 00:56:20;;;;;;;31.33;21.73;;;;;;;11.52;64.98;99701.03;4854409;28;97307;-83
2022/04/22 00:58:48;;;;;;;29.75;22.17;;;;;;;11.52;65.41;99719.44;4861699;28;101005;-84
2022/04/22 01:01:14;;;;;;;31.75;22.05;;;;;;;11.38;65.32;99706.09;4876553;28;101284;-83
2022/04/22 01:09:47;;;;;;;31.20;22.27;;;;;;;11.43;65.87;99718.09;4861714;28;97192;-83
2022/04/22 01:12:00;;;;;;;34.75;22.48;;;;;;;11.55;65.46;99725.38;4872727;28;101639;-83
2022/04/22 01:14:26;;;;;;;34.97;22.92;;;;;;;11.50;65.72;99730.00;4896792;28;97341;-83
2022/04/22 01:16:52;;;;;;;31.20;21.58;;;;;;;11.47;65.67;99730.16;4861639;28;97332;-83
2022/04/22 01:19:18;;;;;;;35.78;22.52;;;;;;;11.50;65.72;99727.38;4892962;28;99037;-83
2022/04/22 01:21:43;;;;;;;33.55;22.15;;;;;;;11.56;65.64;99727.09;4895209;28;98480;-83
2022/04/22 01:24:09;;;;;;;35.05;22.15;;;;;;;11.61;65.48;99712.88;4863381;28;97401;-83
2022/04/22 01:26:34;;;;;;;33.25;23.48;;;;;;;11.53;65.26;99703.56;4879323;28;97166;-83
2022/04/22 01:29:01;;;;;;;35.50;24.50;;;;;;;11.59;65.29;99706.84;4879167;28;100614;-84
2022/04/22 01:31:27;;;;;;;34.17;24.27;;;;;;;11.52;65.57;99704.50;4879053;28;101577;-83
2022/04/22 01:33:52;;;;;;;36.05;24.02;;;;;;;11.48;65.39;99702.09;4879417;28;97106;-83
2022/04/22 01:36:18;;;;;;;34.78;24.50;;;;;;;11.46;65.26;99714.44;4863077;28;97353;-83
2022/04/22 01:38:43;;;;;;;36.92;23.33;;;;;;;11.33;66.00;99708.91;4896047;28;101693;-83
2022/04/22 01:41:09;;;;;;;41.28;27.45;;;;;;;11.27;65.75;99690.81;4876759;28;99869;-83
2022/04/22 01:43:35;;;;;;;36.28;24.20;;;;;;;11.43;65.88;99710.22;4872061;28;98023;-83
2022/04/22 01:46:01;;;;;;;35.92;25.08;;;;;;;11.40;66.10;99702.44;4874748;28;97174;-83
2022/04/22 01:48:27;;;;;;;36.63;24.77;;;;;;;11.47;65.82;99698.63;4857860;28;101400;-83
2022/04/22 01:50:53;;;;;;;36.97;25.33;;;;;;;11.52;65.46;99688.75;4875026;28;100998;-83
2022/04/22 01:53:18;;;;;;;38.28;26.02;;;;;;;11.52;65.42;99688.75;4866846;28;97192;-84
2022/04/22 01:55:44;;;;;;;37.97;26.60;;;;;;;11.53;65.68;99689.59;4859740;28;96870;-83
2022/04/22 01:58:09;;;;;;;33.80;24.65;;;;;;;11.31;65.79;99659.09;4890749;28;98502;-83
2022/04/22 02:00:36;;;;;;;33.90;25.08;;;;;;;11.40;65.96;99686.66;4857381;28;101702;-83
2022/04/22 02:03:02;;;;;;;40.42;26.23;;;;;;;11.35;65.90;99685.22;4865189;28;97500;-84
2022/04/22 02:05:27;;;;;;;38.58;27.17;;;;;;;11.25;66.28;99666.38;4860107;28;97073;-83
2022/04/22 02:07:53;;;;;;;39.10;28.23;;;;;;;11.35;66.34;99669.44;4860240;28;101118;-83
2022/04/22 02:10:19;;;;;;;37.13;25.80;;;;;;;11.24;66.08;99662.06;4905460;28;97748;-83
2022/04/22 02:12:45;;;;;;;36.65;25.25;;;;;;;11.28;66.64;99674.97;4891444;28;97117;-83
2022/04/22 02:15:11;;;;;;;37.25;26.27;;;;;;;11.25;66.35;99667.22;4875278;28;97093;-83
2022/04/22 02:17:37;;;;;;;40.45;27.02;;;;;;;11.38;66.11;99672.78;4876028;28;100381;-83
2022/04/22 02:20:03;;;;;;;37.90;27.42;;;;;;;11.19;66.04;99648.28;4859331;28;101001;-83
2022/04/22 02:22:29;;;;;;;38.40;27.05;;;;;;;11.40;65.94;99684.03;4864436;28;97293;-83
2022/04/22 02:24:56;;;;;;;39.40;26.35;;;;;;;11.30;66.38;99675.75;4859382;28;97138;-83
2022/04/22 02:30:06;;;;;;;42.30;29.45;;;;;;;11.19;66.47;99672.78;4891682;28;97628;-83
2022/04/22 02:32:32;;;;;;;41.60;29.67;;;;;;;11.19;66.37;99666.69;4868438;28;96766;-83
2022/04/22 02:34:57;;;;;;;45.38;30.60;;;;;;;11.20;65.89;99676.25;4897945;28;97887;-83
2022/04/22 02:37:23;;;;;;;53.45;32.95;;;;;;;11.12;66.54;99678.41;4877171;28;100040;-83
2022/04/22 02:39:48;;;;;;;40.72;29.30;;;;;;;11.04;66.72;99665.63;4891802;28;98359;-83
2022/04/22 02:47:42;;;;;;;42.25;29.08;;;;;;;11.16;66.87;99677.31;4891487;28;102163;-83
2022/04/22 02:50:08;;;;;;;49.35;30.65;;;;;;;11.13;66.82;99673.06;4858768;28;101708;-83
2022/04/22 02:52:34;;;;;;;47.85;30.40;;;;;;;11.19;66.73;99667.53;4891414;28;97220;-83
2022/04/22 02:54:59;;;;;;;41.22;28.00;;;;;;;11.03;66.66;99649.00;4861311;28;96978;-84
2022/04/22 02:57:25;;;;;;;47.78;30.52;;;;;;;11.13;66.66;99664.34;4874472;28;101843;-83
2022/04/22 02:59:51;;;;;;;43.45;30.33;;;;;;;11.20;66.49;99668.38;4858366;28;101640;-82
2022/04/22 03:02:16;;;;;;;43.58;28.83;;;;;;;11.16;66.95;99675.53;4887666;28;97229;-83
2022/04/22 03:04:42;;;;;;;40.83;28.50;;;;;;;11.14;66.99;99664.28;4851526;28;97062;-82
2022/04/22 03:07:07;;;;;;;46.53;29.90;;;;;;;10.91;66.94;99620.69;4890283;28;98452;-83
2022/04/22 03:09:33;;;;;;;42.47;28.92;;;;;;;11.13;66.72;99653.84;4865793;28;100208;-83
2022/04/22 03:11:59;;;;;;;45.05;30.17;;;;;;;11.16;66.84;99657.16;4882201;28;97191;-82
2022/04/22 03:14:24;;;;;;;45.85;30.75;;;;;;;11.10;66.57;99642.53;4875413;28;97055;-83
2022/04/22 03:16:50;;;;;;;41.67;28.83;;;;;;;11.06;66.66;99640.16;4875105;28;98071;-83
2022/04/22 03:19:16;;;;;;;47.80;30.42;;;;;;;11.18;66.66;99660.56;4870640;28;101211;-83
2022/04/22 03:21:41;;;;;;;47.00;31.75;;;;;;;11.31;66.59;99661.72;4873965;28;97200;-83
2022/04/22 03:24:07;;;;;;;47.80;31.13;;;;;;;11.35;66.42;99656.31;4874085;28;97066;-83
2022/04/22 03:26:32;;;;;;;41.95;29.45;;;;;;;11.25;65.83;99627.81;4858745;28;101317;-83
2022/04/22 03:28:58;;;;;;;44.92;29.15;;;;;;;11.21;66.38;99639.41;4858997;28;99950;-83
2022/04/22 03:31:24;;;;;;;43.28;29.25;;;;;;;11.03;66.41;99627.16;4874500;28;96758;-83
2022/04/22 03:33:49;;;;;;;43.42;29.17;;;;;;;11.24;66.68;99659.44;4891228;28;97967;-83
2022/04/22 03:36:15;;;;;;;44.15;30.52;;;;;;;11.07;66.78;99623.44;4871962;28;97890;-84
2022/04/22 03:38:41;;;;;;;44.13;29.70;;;;;;;11.37;66.02;99651.81;4874715;28;101264;-83
2022/04/22 03:41:06;;;;;;;46.78;30.15;;;;;;;11.23;65.97;99629.69;4874767;28;97137;-83
2022/04/22 03:43:32;;;;;;;46.45;28.80;;;;;;;11.38;65.70;99650.91;4857678;28;97021;-83
2022/04/22 03:45:58;;;;;;;51.95;30.13;;;;;;;11.38;66.01;99658.78;4856187;28;101172;-83
2022/04/22 03:48:24;;;;;;;44.40;28.95;;;;;;;11.32;65.89;99650.25;4881646;28;99075;-83
2022/04/22 03:50:50;;;;;;;39.03;28.00;;;;;;;11.31;65.63;99638.06;4875032;28;97171;-83
2022/04/22 03:53:16;;;;;;;41.97;27.65;;;;;;;11.09;66.04;99627.72;4858056;28;97632;-83
2022/04/22 03:55:43;;;;;;;42.00;28.83;;;;;;;11.12;66.05;99618.84;4854998;28;100200;-84
2022/04/22 03:58:12;;;;;;;41.60;27.98;;;;;;;11.17;66.44;99643.13;4872845;28;101242;-84
2022/04/22 04:00:42;;;;;;;39.92;26.60;;;;;;;11.13;66.71;99643.31;4874800;28;96776;-83
2022/04/22 04:03:15;;;;;;;44.60;29.27;;;;;;;11.24;65.99;99648.94;4874136;28;97246;-82
2022/04/22 04:05:46;;;;;;;45.70;28.05;;;;;;;11.26;65.92;99639.22;4867995;28;101491;-82
2022/04/22 04:08:11;;;;;;;42.05;28.70;;;;;;;11.25;66.20;99646.22;4857377;28;101387;-83
2022/04/22 04:16:05;;;;;;;42.83;28.73;;;;;;;11.15;66.44;99637.06;4890608;28;98395;-83
2022/04/22 04:18:33;;;;;;;44.70;28.67;;;;;;;11.16;66.32;99635.28;4857834;28;101392;-83
2022/04/22 04:23:44;;;;;;;42.85;29.38;;;;;;;11.14;66.58;99634.50;4885938;28;97340;-84
2022/04/22 04:26:10;;;;;;;48.25;31.95;;;;;;;11.14;66.62;99630.13;4870204;28;98525;-83
2022/04/22 04:28:37;;;;;;;48.10;29.27;;;;;;;11.12;66.58;99634.59;4874266;28;97982;-83
2022/04/22 04:31:03;;;;;;;46.05;30.50;;;;;;;11.18;66.87;99636.09;4856856;28;97255;-84
2022/04/22 04:33:29;;;;;;;47.55;29.77;;;;;;;11.20;66.56;99644.72;4857325;28;96833;-83
2022/04/22 04:35:55;;;;;;;46.25;28.38;;;;;;;11.19;66.77;99653.53;4866937;28;101022;-83
2022/04/22 04:38:22;;;;;;;43.72;29.40;;;;;;;11.19;66.59;99653.53;4873411;28;98018;-83
2022/04/22 04:40:48;;;;;;;44.28;29.38;;;;;;;11.18;66.72;99649.22;4888392;28;97172;-83
2022/04/22 04:43:14;;;;;;;43.45;28.70;;;;;;;11.19;66.71;99649.13;4851431;28;97712;-83
2022/04/22 04:45:40;;;;;;;41.88;28.90;;;;;;;11.29;66.23;99642.53;4835934;28;101378;-84
2022/04/22 04:48:06;;;;;;;44.95;28.98;;;;;;;11.35;66.08;99636.13;4832792;28;100093;-83
2022/04/22 04:50:32;;;;;;;40.50;28.80;;;;;;;11.31;66.35;99635.44;4833692;28;97081;-83
2022/04/22 04:52:58;;;;;;;39.13;27.65;;;;;;;11.31;66.11;99627.56;4836346;28;97315;-83
2022/04/22 04:55:23;;;;;;;40.30;26.98;;;;;;;11.33;65.88;99623.06;4855324;28;101362;-83
2022/04/22 04:57:49;;;;;;;38.85;26.02;;;;;;;11.42;65.67;99639.31;4842306;28;101466;-83
2022/04/22 05:00:16;;;;;;;41.80;27.13;;;;;;;11.26;65.89;99615.56;4862151;28;97792;-84
2022/04/22 05:02:42;;;;;;;40.33;27.23;;;;;;;11.32;65.97;99634.50;4842201;28;97235;-83
2022/04/22 05:05:09;;;;;;;43.45;28.45;;;;;;;11.38;65.65;99627.25;4837627;28;100284;-83
2022/04/22 05:07:46;;;;;;;45.47;29.27;;;;;;;11.34;65.82;99626.53;4869124;28;101414;-83
2022/04/22 05:10:11;;;;;;;42.70;27.63;;;;;;;11.39;65.56;99631.56;4842160;28;96972;-83
2022/04/22 05:12:37;;;;;;;44.63;29.10;;;;;;;11.09;65.98;99590.94;4874878;28;97092;-84
2022/04/22 05:15:03;;;;;;;41.40;26.63;;;;;;;11.38;66.12;99630.72;4854460;28;100431;-83
2022/04/22 05:17:29;;;;;;;40.72;26.38;;;;;;;11.21;65.76;99601.78;4871226;28;101135;-83
2022/04/22 05:19:54;;;;;;;40.35;27.23;;;;;;;11.35;65.75;99635.28;4840267;29;97187;-85
2022/04/22 05:22:20;;;;;;;37.72;25.92;;;;;;;11.20;65.87;99610.56;4843049;28;98036;-84
2022/04/22 05:24:45;;;;;;;38.70;25.23;;;;;;;11.24;65.79;99620.03;4841501;28;101456;-84
2022/04/22 05:27:11;;;;;;;40.95;26.70;;;;;;;11.30;65.46;99628.47;4858037;28;101544;-85
2022/04/22 05:32:39;;;;;;;35.65;25.08;;;;;;;11.37;65.51;99636.03;4871732;28;97187;-84
2022/04/22 05:35:06;;;;;;;35.50;24.48;;;;;;;11.27;66.10;99631.25;4859683;28;101313;-84
2022/04/22 05:37:47;;;;;;;32.80;24.02;;;;;;;11.33;65.76;99640.59;4874877;28;97828;-85
2022/04/22 05:40:13;;;;;;;38.87;24.73;;;;;;;11.22;65.83;99614.00;4876847;28;96817;-84
2022/04/22 05:42:39;;;;;;;36.95;25.00;;;;;;;11.30;65.91;99636.34;4844935;28;97599;-85
2022/04/22 05:45:06;;;;;;;37.30;25.92;;;;;;;11.25;65.93;99637.47;4857402;28;101333;-86
2022/04/22 05:47:32;;;;;;;35.40;25.48;;;;;;;11.25;65.49;99621.72;4831155;28;100301;-87
2022/04/22 05:49:58;;;;;;;34.90;24.75;;;;;;;11.26;65.62;99624.28;4849092;28;97168;-87
2022/04/22 05:52:24;;;;;;;39.85;25.15;;;;;;;11.33;65.37;99620.44;4856186;28;96722;-82
2022/04/22 05:54:49;;;;;;;36.22;26.27;;;;;;;11.39;65.55;99639.47;4863775;28;101208;-80
2022/04/22 05:57:15;;;;;;;38.88;25.73;;;;;;;11.30;65.39;99617.94;4875101;28;101210;-83
2022/04/22 05:59:41;;;;;;;38.55;25.73;;;;;;;11.26;65.35;99615.56;4874962;28;97914;-87
2022/04/22 06:02:07;;;;;;;34.97;25.20;;;;;;;11.36;65.44;99629.09;4835139;28;97207;-87
2022/04/22 06:04:33;;;;;;;35.63;24.48;;;;;;;11.25;65.67;99617.31;4855625;28;101855;-85
2022/04/22 06:06:59;;;;;;;35.47;25.15;;;;;;;11.39;65.49;99624.53;4872058;28;97820;-87
2022/04/22 06:12:09;;;;;;;34.58;24.33;;;;;;;11.36;65.27;99623.84;4874293;28;96871;-88
2022/04/22 06:14:35;;;;;;;36.03;25.92;;;;;;;11.46;65.29;99631.22;4858212;28;98122;-87
2022/04/22 06:17:01;;;;;;;36.05;25.75;;;;;;;11.49;65.39;99622.31;4874052;28;100414;-89
2022/04/22 06:19:27;;;;;;;38.13;26.08;;;;;;;11.51;64.92;99620.47;4868167;28;96827;-87
2022/04/22 06:21:52;;;;;;;36.78;26.10;;;;;;;11.68;65.07;99627.53;4857009;28;97035;-86
2022/04/22 06:24:18;;;;;;;37.25;27.27;;;;;;;11.57;64.68;99609.66;4855663;28;98267;-88
2022/04/22 06:26:43;;;;;;;38.05;28.42;;;;;;;11.58;64.95;99619.25;4857956;28;100618;-87
2022/04/22 06:29:10;;;;;;;39.00;27.58;;;;;;;11.58;65.14;99608.75;4873565;28;96798;-88
2022/04/22 06:31:35;;;;;;;38.90;27.50;;;;;;;11.63;65.16;99616.38;4874102;28;97098;-86
2022/04/22 06:34:02;;;;;;;36.90;27.85;;;;;;;11.46;64.70;99581.28;4873718;28;100788;-92
2022/04/22 06:36:29;;;;;;;42.90;27.65;;;;;;;11.51;65.34;99618.69;4872958;28;98813;-87
2022/04/22 06:38:58;;;;;;;41.08;27.95;;;;;;;11.63;64.96;99624.25;4861171;28;96890;-87
2022/04/22 06:46:57;;;;;;;38.25;27.42;;;;;;;12.08;65.11;99629.03;4879052;28;100165;-85
2022/04/22 06:49:23;;;;;;;42.03;29.23;;;;;;;12.17;64.76;99632.97;4873050;28;96814;-85
2022/04/22 06:51:50;;;;;;;41.55;30.08;;;;;;;12.26;64.49;99634.28;4881483;28;97319;-86
2022/04/22 06:54:17;;;;;;;40.72;30.10;;;;;;;12.28;64.62;99629.81;4873108;28;101729;-85
2022/04/22 06:56:44;;;;;;;41.55;30.73;;;;;;;12.21;64.53;99602.94;4859694;28;101333;-86
2022/04/22 06:59:09;;;;;;;42.10;30.08;;;;;;;12.34;64.88;99614.53;4869823;28;97514;-86
2022/04/22 07:01:36;;;;;;;46.25;33.75;;;;;;;12.45;64.18;99632.41;4874237;28;97292;-85
2022/04/22 07:04:02;;;;;;;39.47;29.70;;;;;;;12.50;64.41;99616.34;4874485;28;98180;-88
2022/04/22 07:06:28;;;;;;;43.78;30.55;;;;;;;12.49;64.29;99602.34;4858692;28;101626;-85
2022/04/22 07:08:54;;;;;;;43.42;30.35;;;;;;;12.61;64.10;99619.25;4872542;28;96826;-85
2022/04/22 07:11:28;;;;;;;43.55;31.20;;;;;;;12.70;64.27;99618.75;4887272;28;97007;-85
2022/04/22 07:13:59;;;;;;;41.35;31.30;;;;;;;12.69;64.37;99596.00;4857479;28;101641;-84
2022/04/22 07:16:25;;;;;;;43.85;32.50;;;;;;;12.87;63.74;99616.06;4872438;28;100666;-85
2022/04/22 07:18:54;;;;;;;44.58;33.08;;;;;;;12.80;63.38;99608.56;4868771;28;97339;-84
2022/04/22 07:21:20;;;;;;;45.53;35.65;;;;;;;12.70;63.94;99613.50;4866332;28;97161;-84
2022/04/22 07:23:52;;;;;;;48.03;34.78;;;;;;;12.68;63.61;99596.91;4847730;28;101837;-84
2022/04/22 07:26:20;;;;;;;46.63;34.40;;;;;;;12.80;64.25;99616.47;4886574;28;98459;-84
2022/04/22 07:28:47;;;;;;;43.28;33.38;;;;;;;12.94;64.15;99615.72;4891498;28;97592;-85
2022/04/22 07:31:16;;;;;;;43.55;32.72;;;;;;;12.83;63.34;99600.53;4889794;28;96771;-86
2022/04/22 07:33:42;;;;;;;41.75;32.60;;;;;;;12.91;63.26;99622.88;4875849;28;101487;-87
2022/04/22 07:36:08;;;;;;;43.10;31.15;;;;;;;12.87;63.30;99620.50;4874261;28;101163;-85
2022/04/22 07:38:34;;;;;;;41.95;31.17;;;;;;;12.75;62.99;99632.53;4860430;28;96686;-84
2022/04/22 07:41:00;;;;;;;46.58;32.80;;;;;;;12.54;63.42;99600.31;4859830;28;97395;-85
2022/04/22 07:48:58;;;;;;;42.80;30.65;;;;;;;12.43;63.72;99631.63;4858246;28;96860;-85
2022/04/22 07:51:27;;;;;;;39.17;30.52;;;;;;;12.35;63.60;99618.00;4855994;28;98584;-85
2022/04/22 07:53:57;;;;;;;36.50;29.42;;;;;;;12.49;63.44;99619.91;4860260;28;99226;-85
2022/04/22 07:56:24;;;;;;;41.60;30.15;;;;;;;12.49;63.39;99633.09;4883955;28;97960;-85
2022/04/22 07:58:50;;;;;;;39.90;29.85;;;;;;;12.57;63.37;99631.75;4872368;28;97353;-85
2022/04/22 08:01:15;;;;;;;45.17;31.05;;;;;;;12.41;63.16;99605.38;4851888;28;98122;-86
2022/04/22 08:03:41;;;;;;;41.15;30.35;;;;;;;12.46;63.21;99624.41;4838658;28;101706;-86
2022/04/22 08:06:07;;;;;;;39.33;29.90;;;;;;;12.49;63.02;99627.81;4853136;28;101683;-86
2022/04/22 08:08:33;;;;;;;44.25;31.85;;;;;;;12.36;62.48;99596.00;4855429;28;97203;-86
2022/04/22 08:10:58;;;;;;;42.40;31.23;;;;;;;12.60;62.37;99597.34;4853038;28;97390;-87
2022/04/22 08:13:26;;;;;;;41.17;30.20;;;;;;;12.64;62.18;99593.59;4870535;28;98376;-86
2022/04/22 08:15:52;;;;;;;40.03;29.50;;;;;;;12.85;61.31;99633.72;4853156;28;97503;-86
2022/04/22 08:18:17;;;;;;;37.47;26.00;;;;;;;12.75;61.21;99608.84;4856033;28;97322;-86
2022/04/22 08:20:43;;;;;;;29.45;23.77;;;;;;;12.90;59.90;99630.84;4851155;28;97415;-86
2022/04/22 08:23:09;;;;;;;29.38;22.75;;;;;;;12.70;59.78;99600.34;4866597;28;97626;-86
2022/04/22 08:25:34;;;;;;;37.03;22.05;;;;;;;12.67;59.21;99589.97;4871231;28;97971;-86
2022/04/22 08:28:02;;;;;;;27.33;20.38;;;;;;;12.63;59.75;99604.25;4850863;28;96895;-86
2022/04/22 08:30:29;;;;;;;26.17;19.45;;;;;;;12.86;58.78;99631.97;4855872;28;96973;-88
2022/04/22 08:32:55;;;;;;;26.33;19.75;;;;;;;12.77;59.23;99630.69;4869806;28;98478;-87
2022/04/22 08:35:20;;;;;;;24.08;18.83;;;;;;;12.78;59.29;99645.53;4856989;28;98671;-87
2022/04/22 08:37:46;;;;;;;24.73;18.00;;;;;;;12.63;59.31;99620.03;4856850;28;97239;-87
2022/04/22 08:40:13;;;;;;;22.08;17.08;;;;;;;12.53;58.86;99624.09;4868971;28;97074;-88
2022/04/22 08:42:39;;;;;;;25.05;17.70;;;;;;;12.59;59.55;99621.97;4878475;28;98020;-85
2022/04/22 08:45:06;;;;;;;24.58;17.58;;;;;;;12.71;59.29;99619.59;4896131;28;97884;-88
2022/04/22 08:50:16;;;;;;;22.40;16.45;;;;;;;12.75;58.90;99631.69;4884712;28;97182;-88
2022/04/22 08:53:12;;;;;;;24.80;17.05;;;;;;;12.78;59.00;99639.44;4881703;28;97786;-86
2022/04/22 08:55:39;;;;;;;24.52;18.50;;;;;;;12.86;59.29;99640.72;4889675;28;98409;-86
2022/04/22 08:58:05;;;;;;;23.25;17.42;;;;;;;12.78;58.55;99613.94;4882349;28;97130;-86
2022/04/22 09:00:35;;;;;;;26.30;16.77;;;;;;;13.01;59.13;99643.44;4882191;28;97029;-86
2022/04/22 09:03:01;;;;;;;21.55;16.58;;;;;;;13.05;58.89;99640.53;4870150;28;100901;-87
2022/04/22 09:05:27;;;;;;;23.67;17.95;;;;;;;12.93;58.64;99627.22;4882536;28;98650;-87
2022/04/22 09:07:53;;;;;;;23.27;17.75;;;;;;;12.85;58.33;99614.44;4861889;28;96837;-83
2022/04/22 09:10:20;;;;;;;20.13;17.02;;;;;;;12.90;58.15;99644.03;4867616;28;97084;-87
2022/04/22 09:12:56;;;;;;;21.48;17.35;;;;;;;12.80;58.42;99629.63;4867892;28;101163;-88
2022/04/22 09:15:24;;;;;;;23.73;16.85;;;;;;;12.92;58.34;99623.72;4864000;28;98579;-79
2022/04/22 09:17:49;;;;;;;21.63;16.98;;;;;;;13.02;58.37;99611.72;4881783;28;96981;-85
2022/04/22 09:20:15;;;;;;;19.73;17.00;;;;;;;13.22;58.07;99620.31;4882774;28;97101;-80
2022/04/22 09:22:44;;;;;;;22.38;17.15;;;;;;;13.24;58.01;99621.94;4873468;28;97579;-80
2022/04/22 09:25:10;;;;;;;22.45;18.05;;;;;;;13.20;57.87;99638.00;4880769;28;101141;-84
2022/04/22 09:27:38;;;;;;;20.70;17.60;;;;;;;13.15;58.07;99630.38;4859827;28;96856;-81
2022/04/22 09:30:07;;;;;;;24.77;17.60;;;;;;;13.21;58.08;99618.63;4891537;28;97078;-80
2022/04/22 09:32:37;;;;;;;23.45;17.73;;;;;;;13.40;57.68;99626.38;4878615;28;97881;-80
2022/04/22 09:35:15;;;;;;;18.90;16.17;;;;;;;13.58;56.66;99620.03;4885213;28;97557;-81
2022/04/22 09:43:39;;;;;;;22.15;17.92;;;;;;;13.19;57.89;99602.91;4874017;28;101216;-82
2022/04/22 09:46:05;;;;;;;21.25;17.80;;;;;;;13.15;58.52;99604.03;4867282;28;101867;-82
2022/04/22 09:48:42;;;;;;;22.33;16.80;;;;;;;13.19;58.50;99631.88;4896888;28;97338;-82
2022/04/22 09:51:30;;;;;;;20.38;14.60;;;;;;;13.06;58.75;99615.91;4880902;28;97575;-86
2022/04/22 09:54:01;;;;;;;19.77;14.65;;;;;;;13.13;58.82;99611.16;4892343;28;100813;-81
2022/04/22 09:56:27;;;;;;;20.67;15.87;;;;;;;13.19;58.54;99626.63;4863991;28;102456;-83
2022/04/22 09:58:52;;;;;;;22.48;15.13;;;;;;;13.35;58.51;99619.59;4862478;28;96763;-75
2022/04/22 10:01:18;;;;;;;20.95;14.88;;;;;;;13.56;58.16;99606.13;4865517;28;97197;-77
2022/04/22 10:03:43;;;;;;;17.65;14.00;;;;;;;13.64;58.01;99632.88;4861983;28;101635;-77
2022/04/22 10:06:09;;;;;;;20.92;14.77;;;;;;;13.55;57.44;99615.78;4890634;28;97638;-81
2022/04/22 10:08:36;;;;;;;17.88;12.65;;;;;;;13.41;57.37;99618.41;4862025;28;97370;-80
2022/04/22 10:11:04;;;;;;;19.25;11.93;;;;;;;13.42;57.52;99617.44;4891873;28;97387;-79
2022/04/22 10:13:33;;;;;;;15.30;10.93;;;;;;;13.40;57.09;99621.94;4862989;28;101484;-80
2022/04/22 10:15:59;;;;;;;14.45;11.65;;;;;;;13.30;57.38;99604.97;4876959;28;101664;-83
2022/04/22 10:18:26;;;;;;;17.92;11.95;;;;;;;13.25;57.49;99614.88;4863104;28;96820;-82
2022/04/22 10:20:52;;;;;;;17.23;11.70;;;;;;;13.03;58.01;99613.47;4877237;28;97517;-82
2022/04/22 10:23:17;;;;;;;13.07;10.60;;;;;;;13.01;58.48;99612.69;4860404;28;101104;-79
2022/04/22 10:25:43;;;;;;;13.18;9.95;;;;;;;12.99;58.47;99606.63;4911223;28;97348;-87
2022/04/22 10:28:10;;;;;;;13.10;10.35;;;;;;;13.02;58.57;99603.00;4871768;28;96849;-85
2022/04/22 10:30:39;;;;;;;11.93;9.75;;;;;;;12.95;58.66;99601.66;4868230;28;96777;-82
2022/04/22 10:33:05;;;;;;;12.32;9.40;;;;;;;12.94;58.56;99584.97;4886534;28;97441;-83
2022/04/22 10:35:44;;;;;;;11.80;9.55;;;;;;;13.12;58.14;99589.22;4873481;28;101344;-83
2022/04/22 10:38:26;;;;;;;13.88;8.80;;;;;;;13.17;57.56;99569.66;4858678;28;96922;-83
2022/04/22 10:40:52;;;;;;;14.25;10.75;;;;;;;13.30;57.37;99576.81;4891820;28;97304;-83
2022/04/22 10:43:17;;;;;;;16.25;10.00;;;;;;;13.46;57.56;99584.69;4884394;28;99157;-82
2022/04/22 10:48:30;;;;;;;12.55;9.77;;;;;;;13.46;57.65;99595.22;4861675;28;96793;-78
2022/04/22 10:51:03;;;;;;;13.32;9.63;;;;;;;13.51;57.38;99582.66;4873684;28;97247;-80
2022/04/22 10:53:33;;;;;;;12.75;9.20;;;;;;;13.49;56.83;99578.41;4892844;28;101382;-79
2022/04/22 10:56:30;;;;;;;11.80;9.50;;;;;;;13.42;56.99;99609.53;4893615;28;97826;-80
2022/04/22 10:59:21;;;;;;;17.13;10.25;;;;;;;13.38;57.81;99607.16;4904397;28;97346;-79
2022/04/22 11:01:48;;;;;;;16.23;10.75;;;;;;;13.36;57.61;99597.56;4900206;28;97745;-79
2022/04/22 11:04:21;;;;;;;16.52;10.88;;;;;;;13.18;57.28;99566.94;4875316;28;97673;-81
2022/04/22 11:06:47;;;;;;;16.15;10.07;;;;;;;13.39;57.54;99599.16;4857888;28;101587;-80
2022/04/22 11:09:25;;;;;;;14.35;9.32;;;;;;;13.51;57.51;99590.56;4858873;28;97194;-79
2022/04/22 11:11:51;;;;;;;14.57;10.93;;;;;;;13.54;56.91;99595.66;4890724;28;97569;-79
2022/04/22 11:14:19;;;;;;;15.95;11.15;;;;;;;13.44;56.87;99589.22;4887662;28;97566;-74
2022/04/22 11:16:45;;;;;;;16.30;12.10;;;;;;;13.39;56.94;99575.44;4856249;28;101737;-74
2022/04/22 11:19:12;;;;;;;17.40;12.25;;;;;;;13.54;56.27;99624.66;4872080;28;97180;-75
2022/04/22 11:21:37;;;;;;;14.32;10.95;;;;;;;13.42;57.31;99601.63;4891824;28;97462;-73
2022/04/22 11:24:09;;;;;;;14.82;11.88;;;;;;;13.33;56.82;99600.38;4910286;28;97618;-76
2022/04/22 11:26:35;;;;;;;14.60;10.63;;;;;;;13.26;57.15;99601.63;4892080;28;97464;-76
2022/04/22 11:29:02;;;;;;;15.80;11.80;;;;;;;13.27;57.45;99598.09;4893400;28;97939;-74
2022/04/22 11:31:28;;;;;;;13.80;10.80;;;;;;;13.27;57.66;99595.44;4863589;28;97589;-74
2022/04/22 11:34:03;;;;;;;15.65;10.82;;;;;;;13.06;57.69;99573.75;4860049;28;101876;-73
2022/04/22 11:36:29;;;;;;;15.30;11.00;;;;;;;13.20;57.67;99599.31;4859322;28;102322;-76
2022/04/22 11:38:55;;;;;;;14.38;10.18;;;;;;;13.20;57.75;99595.84;4860164;28;96704;-74
2022/04/22 11:41:22;;;;;;;16.77;11.05;;;;;;;13.20;57.55;99588.78;4875901;28;97284;-74
2022/04/22 11:43:49;;;;;;;15.70;11.15;;;;;;;13.17;57.43;99599.50;4876884;28;101409;-75
2022/04/22 11:46:16;;;;;;;14.45;10.88;;;;;;;13.05;57.89;99592.28;4858140;28;101112;-76
2022/04/22 11:48:45;;;;;;;15.02;10.88;;;;;;;13.05;58.05;99590.50;4892962;28;97511;-73
2022/04/22 11:51:11;;;;;;;14.20;10.20;;;;;;;12.97;58.53;99595.31;4874595;28;97387;-74
2022/04/22 11:53:37;;;;;;;15.65;11.38;;;;;;;12.95;58.05;99597.22;4875983;28;98310;-74
2022/04/22 11:56:04;;;;;;;12.98;10.00;;;;;;;12.94;58.28;99597.28;4891055;28;97531;-74
2022/04/22 11:58:32;;;;;;;14.68;11.05;;;;;;;12.94;58.31;99598.13;4873557;28;98036;-76
2022/04/22 12:06:29;;;;;;;13.50;10.20;;;;;;;12.95;58.32;99605.13;4892796;28;100221;-78
2022/04/22 12:09:02;;;;;;;14.45;10.77;;;;;;;12.98;58.13;99599.69;4875124;28;98328;-76